Time;durP1;ratioP1;P1;durP2;ratioP2;P2;SDS_P1;SDS_P2;PMS_P1;PMS_P2;Temp;Humidity;BMP_temperature;BMP_pressure;BME280_temperature;BME280_humidity;BME280_pressure;Samples;Min_cycle;Max_cycle;Signal;HPM_P1;HPM_P2
2023/04/07 00:00:15;;;;;;;;;15.00;12.25;;;;;9.23;73.27;100802.50;146635;607;45021;-68
2023/04/07 00:03:23;;;;;;;;;12.75;10.75;;;;;7.84;72.63;100575.50;146631;563;46012;-69
2023/04/07 00:06:21;;;;;;;;;14.50;12.00;;;;;9.02;72.93;100800.44;146628;595;45011;-69
2023/04/07 00:09:13;;;;;;;;;19.00;16.00;;;;;8.87;72.67;100793.47;146631;593;45014;-71
2023/04/07 00:12:12;;;;;;;;;18.00;14.50;;;;;8.72;72.38;100796.94;146636;591;45010;-69
2023/04/07 00:15:14;;;;;;;;;12.50;11.50;;;;;8.62;72.61;100799.75;146631;576;45013;-71
2023/04/07 00:18:22;;;;;;;;;15.75;13.75;;;;;8.50;73.07;100804.19;146638;634;45020;-69
2023/04/07 00:21:20;;;;;;;;;17.75;13.25;;;;;8.37;73.53;100799.03;146632;603;45016;-71
2023/04/07 00:24:37;;;;;;;;;14.50;12.25;;;;;8.26;73.84;100804.47;146634;612;45012;-70
2023/04/07 00:27:34;;;;;;;;;15.00;12.50;;;;;8.20;74.05;100809.25;146631;640;46016;-70
2023/04/07 00:30:38;;;;;;;;;11.25;10.50;;;;;8.18;73.82;100807.34;146637;669;45010;-70
2023/04/07 00:33:57;;;;;;;;;15.00;12.25;;;;;8.20;73.55;100806.66;146629;602;46012;-70
2023/04/07 00:37:09;;;;;;;;;15.50;13.75;;;;;8.22;73.98;100809.31;146632;604;45024;-70
2023/04/07 00:40:06;;;;;;;;;12.00;11.00;;;;;8.17;73.46;100803.00;146629;608;46014;-69
2023/04/07 00:43:02;;;;;;;;;13.75;13.50;;;;;8.11;73.57;100800.91;146637;649;45010;-68
2023/04/07 00:46:07;;;;;;;;;16.00;14.75;;;;;8.06;73.47;100805.78;146632;601;45016;-70
2023/04/07 00:49:09;;;;;;;;;14.00;12.00;;;;;8.00;73.11;100801.94;146634;575;46012;-69
2023/04/07 00:52:03;;;;;;;;;16.00;12.00;;;;;7.99;73.15;100806.22;146633;613;46013;-69
2023/04/07 00:54:58;;;;;;;;;14.50;11.50;;;;;7.99;73.34;100801.03;146626;564;46010;-71
2023/04/07 00:57:56;;;;;;;;;15.75;13.00;;;;;8.01;73.10;100802.03;146611;591;47027;-69
2023/04/07 01:01:36;;;;;;;;;17.75;11.75;;;;;8.02;72.84;100796.06;146618;583;46021;-70
2023/04/07 01:05:03;;;;;;;;;9.25;9.25;;;;;7.19;72.41;100668.66;146613;614;47016;-70
2023/04/07 01:08:36;;;;;;;;;12.25;9.25;;;;;7.91;72.13;100799.66;146612;569;46021;-70
2023/04/07 01:11:59;;;;;;;;;15.75;10.50;;;;;7.94;72.51;100799.84;146620;617;46012;-68
2023/04/07 01:15:23;;;;;;;;;10.25;9.00;;;;;7.18;72.05;100651.44;146623;633;45022;-68
2023/04/07 01:18:38;;;;;;;;;12.25;10.25;;;;;8.00;72.38;100796.75;146616;605;46012;-70
2023/04/07 01:21:38;;;;;;;;;10.50;9.00;;;;;7.99;72.25;100801.03;146620;594;46020;-68
2023/04/07 01:25:05;;;;;;;;;16.00;13.50;;;;;7.31;72.37;100677.19;146611;591;46016;-66
2023/04/07 08:28:22;;;;;;;;;17.75;14.75;;;;;13.99;59.83;101131.50;146617;362;45014;-73
2023/04/07 08:31:18;;;;;;;;;16.00;14.50;;;;;14.10;56.97;101125.91;146618;613;46012;-73
2023/04/07 08:34:15;;;;;;;;;14.25;13.50;;;;;14.04;55.86;101132.56;146624;652;45020;-73
2023/04/07 08:37:20;;;;;;;;;13.25;12.25;;;;;13.85;57.77;101130.88;146621;602;46014;-73
2023/04/07 08:40:25;;;;;;;;;14.75;11.25;;;;;13.74;58.79;101125.19;146624;580;46010;-74
2023/04/07 08:43:45;;;;;;;;;17.50;14.50;;;;;13.75;61.23;101121.75;146619;593;45015;-73
2023/04/07 08:47:11;;;;;;;;;18.25;15.75;;;;;10.93;60.04;100596.44;146619;593;45020;-74
2023/04/07 08:50:44;;;;;;;;;17.50;14.75;;;;;14.28;58.55;101130.16;146616;569;46012;-75
2023/04/07 08:53:52;;;;;;;;;15.50;14.75;;;;;14.44;59.13;101136.91;146619;585;45020;-73
2023/04/07 08:57:23;;;;;;;;;18.25;15.00;;;;;14.49;58.81;101131.06;146621;591;46012;-77
2023/04/07 09:00:18;;;;;;;;;17.00;15.50;;;;;14.57;56.75;101133.09;146623;582;45021;-74
2023/04/07 09:03:26;;;;;;;;;15.00;14.00;;;;;14.63;58.06;101135.97;146620;573;46016;-73
2023/04/07 09:06:28;;;;;;;;;14.00;12.25;;;;;14.66;57.52;101123.94;146618;616;47010;-73
2023/04/07 09:09:43;;;;;;;;;15.00;14.00;;;;;14.38;57.99;101074.91;146620;583;46012;-73
2023/04/07 09:12:51;;;;;;;;;16.25;12.00;;;;;14.70;57.96;101125.88;146622;629;45022;-74
2023/04/07 09:16:13;;;;;;;;;11.75;10.50;;;;;14.70;54.09;101127.56;146622;639;45016;-74
2023/04/07 09:19:21;;;;;;;;;15.75;11.75;;;;;14.53;54.16;101124.28;146624;575;46014;-75
2023/04/07 09:22:17;;;;;;;;;19.00;15.50;;;;;14.39;55.89;101118.47;146611;606;47016;-76
2023/04/07 09:25:33;;;;;;;;;15.75;13.75;;;;;14.35;56.94;101115.63;146612;608;46020;-77
2023/04/07 09:29:07;;;;;;;;;14.75;14.00;;;;;14.35;56.22;101107.81;146621;605;46012;-75
2023/04/07 09:32:25;;;;;;;;;15.50;13.50;;;;;14.33;56.70;101121.69;146633;584;45029;-74
2023/04/07 09:35:22;;;;;;;;;13.00;12.00;;;;;14.36;56.26;101112.19;146634;603;45015;-75
2023/04/07 09:38:16;;;;;;;;;10.25;9.00;;;;;12.84;53.20;100851.19;146633;605;45021;-75
2023/04/07 09:41:40;;;;;;;;;13.00;11.75;;;;;14.23;53.47;101116.88;146633;577;45016;-74
2023/04/07 09:44:32;;;;;;;;;12.75;12.50;;;;;14.18;52.90;101113.22;146629;565;47013;-75
2023/04/07 09:47:46;;;;;;;;;16.00;13.00;;;;;12.97;56.76;100883.84;146636;569;45016;-75
2023/04/07 09:50:50;;;;;;;;;12.75;11.75;;;;;13.19;54.18;100857.03;146630;667;46015;-74
2023/04/07 09:53:59;;;;;;;;;13.25;13.00;;;;;13.55;53.81;100854.22;146631;723;45016;-76
2023/04/07 09:57:00;;;;;;;;;17.75;13.25;;;;;15.19;53.47;101100.78;146627;632;46015;-74
2023/04/07 09:59:58;;;;;;;;;13.25;11.50;;;;;15.50;50.91;101109.78;146627;691;45916;-74
2023/04/07 10:03:04;;;;;;;;;13.00;10.25;;;;;15.67;51.07;101107.00;146631;597;45014;-73
2023/04/07 10:06:06;;;;;;;;;15.75;15.25;;;;;15.73;51.10;101098.47;146631;593;45012;-74
2023/04/07 10:09:13;;;;;;;;;15.50;14.00;;;;;15.80;52.84;101083.94;146635;733;45010;-75
2023/04/07 10:12:24;;;;;;;;;17.00;13.75;;;;;15.90;53.74;101086.91;146627;573;46016;-76
2023/04/07 10:15:21;;;;;;;;;18.50;17.00;;;;;16.13;52.42;101086.81;146628;594;46020;-74
2023/04/07 10:18:35;;;;;;;;;11.00;9.75;;;;;16.23;50.62;101082.78;146632;594;45016;-74
2023/04/07 10:21:34;;;;;;;;;14.00;13.00;;;;;16.15;49.26;101085.16;146631;583;45010;-75
2023/04/07 10:24:59;;;;;;;;;14.75;14.00;;;;;15.97;52.71;101077.53;146633;611;45012;-76
2023/04/07 10:28:11;;;;;;;;;16.00;15.50;;;;;16.08;52.39;101093.63;146623;581;45021;-74
2023/04/07 10:31:13;;;;;;;;;14.25;14.00;;;;;16.09;50.56;101084.94;146621;580;46012;-75
2023/04/07 10:34:05;;;;;;;;;18.00;15.50;;;;;16.13;50.14;101082.47;146623;606;46010;-77
2023/04/07 10:37:33;;;;;;;;;11.25;11.00;;;;;15.99;48.95;101081.13;146622;628;46012;-75
2023/04/07 10:40:36;;;;;;;;;14.00;11.25;;;;;15.94;47.85;101083.56;146622;614;46020;-76
2023/04/07 10:44:04;;;;;;;;;;;;;;;;;;;;;
2023/04/07 10:47:13;;;;;;;;;13.00;10.25;;;;;15.57;47.61;101072.59;146622;595;45020;-75
2023/04/07 10:50:57;;;;;;;;;18.50;15.00;;;;;15.38;51.61;101084.97;146623;661;46013;-75
2023/04/07 10:54:25;;;;;;;;;14.25;13.75;;;;;15.36;51.64;101078.81;146628;569;45020;-77
2023/04/07 10:57:28;;;;;;;;;14.50;12.00;;;;;15.55;50.60;101076.88;146620;586;46012;-75
2023/04/07 11:00:35;;;;;;;;;12.75;12.75;;;;;15.79;49.22;101077.78;146620;610;46010;-77
2023/04/07 11:03:44;;;;;;;;;14.50;13.00;;;;;15.85;49.46;101077.13;146619;564;46013;-77
2023/04/07 11:06:58;;;;;;;;;12.25;11.25;;;;;15.88;50.57;101072.88;146623;606;46010;-75
2023/04/07 11:09:54;;;;;;;;;19.00;16.00;;;;;15.96;51.25;101067.06;146619;662;46012;-75
2023/04/07 11:13:10;;;;;;;;;17.25;14.25;;;;;14.84;52.59;100820.09;146623;564;47010;-75
2023/04/07 11:16:07;;;;;;;;;20.50;16.50;;;;;16.57;49.68;101066.47;146619;575;45014;-75
2023/04/07 11:19:38;;;;;;;;;;;;;;;;;;;;;
2023/04/07 11:22:34;;;;;;;;;14.00;10.75;;;;;16.79;48.33;101047.13;146622;574;46014;-75
2023/04/07 11:25:32;;;;;;;;;15.00;11.75;;;;;16.95;47.03;101056.38;146622;630;46011;-76
2023/04/07 11:28:57;;;;;;;;;16.25;13.00;;;;;16.75;47.68;101051.38;146618;574;46012;-77
2023/04/07 11:32:09;;;;;;;;;18.00;16.50;;;;;16.63;49.73;101064.97;146626;583;45020;-75
2023/04/07 11:35:35;;;;;;;;;17.50;15.00;;;;;16.74;48.31;101051.31;146634;593;45017;-74
2023/04/07 11:38:36;;;;;;;;;10.50;10.50;;;;;16.88;48.24;101044.78;146634;628;45010;-75
2023/04/07 11:41:36;;;;;;;;;8.25;8.25;;;;;17.06;47.91;101042.72;146632;608;45017;-76
2023/04/07 11:44:34;;;;;;;;;12.75;10.50;;;;;17.21;46.21;101049.28;146631;582;45020;-75
2023/04/07 11:47:45;;;;;;;;;13.25;9.50;;;;;17.21;47.22;101044.03;146629;587;45016;-74
2023/04/07 11:50:50;;;;;;;;;12.50;12.50;;;;;17.22;47.79;101045.81;146633;659;45021;-74
2023/04/07 11:53:50;;;;;;;;;12.50;9.75;;;;;17.23;45.77;101037.13;146634;565;45014;-73
2023/04/07 11:56:54;;;;;;;;;16.25;14.75;;;;;17.13;47.54;101028.06;146635;604;45010;-75
2023/04/07 11:59:49;;;;;;;;;6.75;6.75;;;;;17.17;45.49;101039.56;146632;569;46012;-77
2023/04/07 12:02:52;;;;;;;;;10.75;9.25;;;;;17.02;44.70;101027.78;146628;613;45020;-75
2023/04/07 12:05:51;;;;;;;;;12.75;9.75;;;;;16.77;48.18;101014.78;146633;564;45012;-75
2023/04/07 12:08:50;;;;;;;;;12.25;9.00;;;;;16.76;46.36;101024.38;146634;660;45020;-74
2023/04/07 12:11:57;;;;;;;;;7.25;6.75;;;;;16.50;46.43;100986.84;146632;714;45016;-75
2023/04/07 12:14:52;;;;;;;;;9.00;8.00;;;;;16.56;45.02;101005.38;146632;573;45010;-79
2023/04/07 12:17:59;;;;;;;;;8.67;7.67;;;;;16.45;48.75;101011.09;146634;576;45016;-74
2023/04/07 12:20:56;;;;;;;;;11.75;9.00;;;;;16.44;45.86;101009.34;146634;565;45030;-75
2023/04/07 12:24:02;;;;;;;;;7.00;7.00;;;;;16.47;46.90;101007.69;146636;660;45012;-76
2023/04/07 12:27:05;;;;;;;;;8.50;8.50;;;;;16.47;45.78;100998.97;146636;591;45010;-77
2023/04/07 12:30:16;;;;;;;;;8.75;8.75;;;;;16.21;45.70;101000.75;146622;563;45016;-77
2023/04/07 12:33:12;;;;;;;;;10.75;9.00;;;;;16.10;49.23;100995.16;146613;707;46010;-75
2023/04/07 12:36:20;;;;;;;;;10.75;9.25;;;;;16.17;48.36;101005.00;146620;680;46012;-76
2023/04/07 12:39:35;;;;;;;;;10.25;10.00;;;;;16.29;49.66;100979.25;146616;575;45020;-75
2023/04/07 12:42:45;;;;;;;;;10.25;9.50;;;;;16.48;48.83;100975.47;146609;650;46014;-75
2023/04/07 12:45:41;;;;;;;;;7.75;7.00;;;;;16.59;47.71;100981.91;146616;687;46010;-75
2023/04/07 12:49:04;;;;;;;;;;;;;;;;;;;;;
2023/04/07 12:52:06;;;;;;;;;13.75;9.50;;;;;16.57;49.37;100982.69;146610;565;46916;-75
2023/04/07 12:55:13;;;;;;;;;12.75;11.50;;;;;16.50;48.58;100973.78;146617;569;46012;-78
2023/04/07 12:58:13;;;;;;;;;13.00;11.75;;;;;16.47;47.62;100972.78;146619;595;46010;-77
2023/04/07 13:01:06;;;;;;;;;13.00;10.50;;;;;16.46;49.09;100976.25;146614;611;45918;-71
2023/04/07 13:04:09;;;;;;;;;13.00;11.00;;;;;16.45;47.68;100972.75;146610;571;46010;-74
2023/04/07 13:07:03;;;;;;;;;14.00;11.00;;;;;16.47;48.78;100972.78;146615;582;45016;-72
2023/04/07 13:10:01;;;;;;;;;13.50;12.25;;;;;16.47;48.16;100978.91;146618;633;46020;-78
2023/04/07 13:13:06;;;;;;;;;13.00;10.25;;;;;16.48;50.33;100964.09;146611;599;46012;-72
2023/04/07 13:16:16;;;;;;;;;13.50;12.50;;;;;16.47;46.84;100972.78;146611;642;46010;-74
2023/04/07 13:19:24;;;;;;;;;15.00;13.00;;;;;16.46;48.88;100969.28;146610;615;45917;-76
2023/04/07 13:22:19;;;;;;;;;12.50;10.50;;;;;16.44;47.41;100976.19;146613;588;45020;-77
2023/04/07 13:25:35;;;;;;;;;11.50;11.00;;;;;16.46;48.17;100973.63;146612;564;46012;-75
2023/04/07 13:28:46;;;;;;;;;14.50;11.00;;;;;16.46;49.08;100971.91;146615;582;45020;-78
2023/04/07 13:31:41;;;;;;;;;13.50;11.75;;;;;16.41;48.77;100970.88;146631;651;45918;-78
2023/04/07 13:34:46;;;;;;;;;13.25;12.25;;;;;14.69;49.69;100680.38;146628;570;45027;-76
2023/04/07 13:37:49;;;;;;;;;13.00;11.25;;;;;16.33;48.66;100962.78;146630;628;45034;-78
2023/04/07 13:40:53;;;;;;;;;13.00;13.00;;;;;14.74;50.21;100688.37;146631;612;45021;-77
2023/04/07 13:43:58;;;;;;;;;16.00;13.25;;;;;16.36;48.95;100965.50;146630;572;45012;-79
2023/04/07 13:46:51;;;;;;;;;13.25;12.25;;;;;16.40;47.67;100974.31;146634;573;45020;-75
2023/04/07 13:49:53;;;;;;;;;9.00;7.25;;;;;16.34;50.42;100979.37;146630;680;45031;-72
2023/04/07 13:52:51;;;;;;;;;13.00;11.50;;;;;14.76;48.47;100734.53;146628;674;46010;-79
2023/04/07 13:55:46;;;;;;;;;12.25;12.25;;;;;16.08;48.72;100982.03;146625;569;45034;-77
2023/04/07 13:58:56;;;;;;;;;14.00;12.50;;;;;16.07;48.98;100981.97;146632;600;46020;-77
2023/04/07 14:01:55;;;;;;;;;10.00;9.50;;;;;16.04;47.53;100985.38;146631;611;45917;-75
2023/04/07 14:04:50;;;;;;;;;17.00;15.00;;;;;15.99;49.39;100981.72;146626;571;46014;-77
2023/04/07 14:07:46;;;;;;;;;7.50;7.25;;;;;15.92;49.07;100991.09;146634;595;45010;-76
2023/04/07 14:10:38;;;;;;;;;15.00;13.00;;;;;15.89;50.05;100983.16;146633;589;45011;-76
2023/04/07 14:13:31;;;;;;;;;13.50;12.50;;;;;15.90;50.03;100976.19;146631;634;45016;-77
2023/04/07 14:16:22;;;;;;;;;15.75;13.00;;;;;15.84;49.90;100981.22;146635;600;45010;-79
2023/04/07 14:19:17;;;;;;;;;19.75;16.75;;;;;15.81;50.40;100984.59;146631;571;45020;-76
2023/04/07 14:22:20;;;;;;;;;18.75;15.75;;;;;14.14;51.66;100681.00;146621;584;46010;-78
2023/04/07 14:25:24;;;;;;;;;13.75;11.75;;;;;15.81;48.48;100968.91;146633;608;45016;-75
2023/04/07 14:28:31;;;;;;;;;13.75;13.50;;;;;15.88;50.40;100970.00;146633;569;45010;-77
2023/04/07 14:31:47;;;;;;;;;;;;;;;;;;;;;
2023/04/07 14:34:51;;;;;;;;;19.50;14.50;;;;;16.00;49.14;100986.13;146628;569;45010;-73
2023/04/07 14:37:59;;;;;;;;;;;;;;;;;;;;;
2023/04/07 14:41:08;;;;;;;;;;;;;;;;;;;;;
2023/04/07 14:44:08;;;;;;;;;15.75;11.00;;;;;16.07;47.11;100988.09;146631;592;45916;-75
2023/04/07 14:47:13;;;;;;;;;19.25;14.50;;;;;16.05;47.66;100981.94;146633;628;45021;-77
2023/04/07 14:50:25;;;;;;;;;15.50;12.75;;;;;15.22;49.55;100830.13;146630;624;45919;-77
2023/04/07 14:53:31;;;;;;;;;17.25;14.00;;;;;15.98;47.76;100974.75;146632;609;46010;-77
2023/04/07 14:56:48;;;;;;;;;16.25;15.50;;;;;15.97;47.99;100975.56;146628;625;45016;-76
2023/04/07 15:00:16;;;;;;;;;16.75;14.25;;;;;15.96;47.99;100972.91;146650;698;46010;-76
2023/04/07 15:03:18;;;;;;;;;13.75;13.00;;;;;15.90;45.73;100973.56;146631;595;45032;-76
2023/04/07 15:06:22;;;;;;;;;17.50;15.00;;;;;14.47;48.05;100728.28;146627;605;45020;-78
2023/04/07 15:09:21;;;;;;;;;18.75;14.75;;;;;15.83;48.05;100962.03;146634;567;45017;-76
2023/04/07 15:12:37;;;;;;;;;19.25;16.75;;;;;15.83;48.14;100976.84;146633;583;45010;-78
2023/04/07 15:15:32;;;;;;;;;15.50;13.50;;;;;15.79;48.36;100967.09;146632;613;45031;-78
2023/04/07 15:18:37;;;;;;;;;15.75;13.50;;;;;15.76;48.08;100977.44;146630;624;45019;-77
2023/04/07 15:21:45;;;;;;;;;16.25;14.00;;;;;13.97;49.54;100675.19;146632;581;45012;-77
2023/04/07 15:24:42;;;;;;;;;17.25;14.50;;;;;15.62;48.29;100975.22;146632;564;45020;-76
2023/04/07 15:27:43;;;;;;;;;20.75;17.25;;;;;15.58;48.69;100967.22;146632;602;45016;-74
2023/04/07 15:30:57;;;;;;;;;14.75;14.50;;;;;15.27;49.59;100953.06;146617;588;46010;-76
2023/04/07 15:33:56;;;;;;;;;12.25;12.25;;;;;15.32;50.57;100974.12;146611;587;46014;-76
2023/04/07 15:37:21;;;;;;;;;22.50;18.25;;;;;15.30;50.17;100970.59;146608;581;45020;-76
2023/04/07 15:40:16;;;;;;;;;20.50;17.75;;;;;15.24;51.07;100972.13;146612;602;45017;-77
2023/04/07 15:43:11;;;;;;;;;18.50;16.50;;;;;15.10;51.08;100956.78;146620;637;45020;-77
2023/04/07 15:46:22;;;;;;;;;13.25;13.25;;;;;12.02;50.78;100475.00;146610;570;47918;-75
2023/04/07 15:49:21;;;;;;;;;15.25;12.00;;;;;14.76;54.11;100979.03;146617;606;45020;-76
2023/04/07 15:52:27;;;;;;;;;14.75;14.50;;;;;14.52;54.61;100973.75;146611;611;45918;-77
2023/04/07 15:55:25;;;;;;;;;12.75;12.25;;;;;14.37;54.61;100979.22;146615;633;45021;-75
2023/04/07 15:58:17;;;;;;;;;14.75;14.25;;;;;14.24;55.83;100969.13;146614;563;46016;-76
2023/04/07 16:01:21;;;;;;;;;13.25;13.25;;;;;11.57;55.38;100518.91;146615;559;45020;-75
2023/04/07 16:04:19;;;;;;;;;15.25;11.50;;;;;14.09;56.37;100966.78;146612;570;46014;-76
2023/04/07 16:07:33;;;;;;;;;13.25;11.00;;;;;14.02;55.72;100985.63;146610;566;45021;-78
2023/04/07 16:10:32;;;;;;;;;18.75;15.75;;;;;13.99;55.56;100978.56;146614;591;46014;-77
2023/04/07 16:13:57;;;;;;;;;14.25;13.25;;;;;13.80;55.48;100966.47;146616;616;46014;-75
2023/04/07 16:16:59;;;;;;;;;13.50;13.50;;;;;13.82;55.20;100974.34;146608;608;46012;-77
2023/04/07 16:20:01;;;;;;;;;17.50;14.00;;;;;13.79;54.70;100982.03;146614;594;46010;-76
2023/04/07 16:23:03;;;;;;;;;19.25;16.00;;;;;13.69;55.05;100956.44;146608;622;46015;-76
2023/04/07 16:26:05;;;;;;;;;20.00;18.00;;;;;13.75;54.38;100977.53;146616;580;46020;-75
2023/04/07 16:29:05;;;;;;;;;16.25;13.75;;;;;13.70;54.65;100976.44;146611;594;46012;-76
2023/04/07 16:32:09;;;;;;;;;15.25;14.00;;;;;13.65;54.16;100980.59;146615;563;46010;-75
2023/04/07 16:35:30;;;;;;;;;18.00;16.00;;;;;13.62;54.72;100979.63;146612;609;46014;-76
2023/04/07 16:38:28;;;;;;;;;17.00;14.50;;;;;13.58;54.89;100982.94;146606;576;46020;-76
2023/04/07 16:41:32;;;;;;;;;18.75;15.75;;;;;13.56;54.46;100983.69;146611;650;46918;-77
2023/04/07 16:44:38;;;;;;;;;22.50;17.75;;;;;13.45;54.66;100972.78;146616;645;45020;-77
2023/04/07 16:47:34;;;;;;;;;21.75;18.75;;;;;13.49;54.97;100990.34;146606;563;47918;-75
2023/04/07 16:50:28;;;;;;;;;21.25;20.50;;;;;13.43;54.32;100996.97;146611;664;46010;-74
2023/04/07 16:53:35;;;;;;;;;20.75;19.50;;;;;13.34;55.11;100987.06;146612;586;45022;-76
2023/04/07 16:56:56;;;;;;;;;18.50;16.50;;;;;11.59;54.82;100697.28;146608;613;46010;-77
2023/04/07 17:00:07;;;;;;;;;20.50;17.75;;;;;13.25;55.01;100997.94;146619;584;45017;-76
2023/04/07 17:03:17;;;;;;;;;22.25;19.00;;;;;13.20;55.02;100999.41;146612;601;46020;-75
2023/04/07 17:06:15;;;;;;;;;27.50;24.25;;;;;13.16;55.46;100997.50;146612;609;46012;-75
2023/04/07 17:09:14;;;;;;;;;24.00;21.75;;;;;13.14;54.98;101002.63;146612;613;46014;-75
2023/04/07 17:12:18;;;;;;;;;36.00;28.25;;;;;13.14;55.50;101005.22;146611;742;46012;-75
2023/04/07 17:15:33;;;;;;;;;30.00;27.25;;;;;13.14;55.26;101004.34;146613;591;46011;-76
2023/04/07 17:18:26;;;;;;;;;32.50;26.75;;;;;13.11;55.22;100997.28;146617;707;46014;-76
2023/04/07 17:21:34;;;;;;;;;23.50;22.25;;;;;13.11;54.78;101002.50;146615;656;46010;-75
2023/04/07 17:24:31;;;;;;;;;20.50;19.00;;;;;13.09;55.24;101005.88;146614;600;46014;-76
2023/04/07 17:27:34;;;;;;;;;23.75;20.50;;;;;13.09;55.48;101009.34;146611;632;46010;-76
2023/04/07 17:30:48;;;;;;;;;47.25;37.25;;;;;13.12;55.73;101016.44;146614;664;46013;-76
2023/04/07 17:33:46;;;;;;;;;50.75;38.75;;;;;13.13;55.48;101013.88;146624;597;46010;-75
2023/04/07 17:36:45;;;;;;;;;30.25;28.00;;;;;13.16;55.57;101011.41;146622;574;45017;-75
2023/04/07 17:40:06;;;;;;;;;33.75;28.75;;;;;11.67;55.26;100763.47;146617;627;45020;-75
2023/04/07 17:43:06;;;;;;;;;33.00;28.75;;;;;13.12;54.56;101011.22;146617;587;46012;-76
2023/04/07 17:46:05;;;;;;;;;39.25;34.25;;;;;13.12;55.09;101021.62;146626;576;45014;-76
2023/04/07 17:49:04;;;;;;;;;33.50;29.75;;;;;13.12;55.90;101026.84;146621;597;46016;-76
2023/04/07 17:51:58;;;;;;;;;32.00;27.75;;;;;13.02;56.24;101015.12;146625;774;45037;-76
2023/04/07 17:55:05;;;;;;;;;;;;;;;;;;;;;
2023/04/07 17:58:10;;;;;;;;;30.50;27.00;;;;;13.08;55.71;101030.09;146623;603;46022;-75
2023/04/07 18:01:16;;;;;;;;;38.00;31.75;;;;;13.08;55.70;101036.22;146624;601;45017;-75
2023/04/07 18:04:15;;;;;;;;;33.00;27.75;;;;;13.11;55.32;101048.47;146624;563;46010;-77
2023/04/07 18:07:20;;;;;;;;;28.75;22.75;;;;;13.09;54.83;101050.13;146621;581;46014;-76
2023/04/07 18:10:27;;;;;;;;;20.50;19.00;;;;;13.07;54.63;101060.44;146614;589;46020;-75
2023/04/07 18:13:41;;;;;;;;;22.00;19.75;;;;;9.85;55.40;100509.03;146621;583;46012;-76
2023/04/07 18:16:42;;;;;;;;;24.00;18.50;;;;;13.00;55.35;101060.13;146626;639;46021;-76
2023/04/07 18:19:43;;;;;;;;;24.00;21.75;;;;;13.02;54.96;101071.47;146618;606;46012;-77
2023/04/07 18:22:38;;;;;;;;;18.25;15.75;;;;;12.99;53.90;101081.72;146622;705;45021;-77
2023/04/07 18:25:37;;;;;;;;;24.25;21.75;;;;;12.96;54.62;101087.72;146618;564;46016;-81
2023/04/07 18:28:41;;;;;;;;;33.00;29.00;;;;;12.88;54.84;101095.13;146621;596;45036;-81
2023/04/07 18:31:47;;;;;;;;;23.75;21.50;;;;;12.89;55.09;101101.22;146631;591;45918;-76
2023/04/07 18:34:49;;;;;;;;;25.00;19.75;;;;;12.81;55.70;101105.19;146634;626;45010;-75
2023/04/07 18:37:55;;;;;;;;;19.25;16.50;;;;;12.72;55.48;101100.44;146630;602;46014;-76
2023/04/07 18:41:04;;;;;;;;;27.00;24.75;;;;;12.68;56.00;101114.13;146625;595;45020;-74
2023/04/07 18:44:00;;;;;;;;;22.75;21.75;;;;;12.61;55.65;101115.50;146630;645;46010;-75
2023/04/07 18:47:01;;;;;;;;;28.25;25.00;;;;;12.57;56.10;101120.50;146630;668;45020;-77
2023/04/07 18:50:09;;;;;;;;;29.50;24.50;;;;;12.56;55.80;101137.81;146629;605;45919;-77
2023/04/07 18:53:15;;;;;;;;;;;;;;;;;;;;;
2023/04/07 18:56:27;;;;;;;;;21.25;19.50;;;;;12.57;56.81;101151.72;146631;583;45012;-78
2023/04/07 18:59:37;;;;;;;;;17.75;15.25;;;;;12.51;57.16;101154.00;146635;587;45021;-77
2023/04/07 19:02:44;;;;;;;;;;;;;;;;;;;;;
2023/04/07 19:05:51;;;;;;;;;20.50;16.50;;;;;12.34;57.57;101172.25;146632;570;45010;-78
2023/04/07 19:08:58;;;;;;;;;23.75;22.75;;;;;12.34;58.07;101174.84;146626;598;45016;-76
2023/04/07 19:12:09;;;;;;;;;14.50;14.00;;;;;12.30;57.30;101175.50;146628;629;45014;-77
2023/04/07 19:15:09;;;;;;;;;20.25;18.50;;;;;12.30;57.65;101188.50;146631;569;45016;-77
2023/04/07 19:18:37;;;;;;;;;;;;;;;;;;;;;
2023/04/07 19:21:33;;;;;;;;;23.75;20.50;;;;;12.22;57.36;101201.12;146628;580;45017;-77
2023/04/07 19:24:36;;;;;;;;;24.75;19.00;;;;;12.15;57.45;101198.09;146629;668;45020;-79
2023/04/07 19:27:38;;;;;;;;;17.50;16.25;;;;;12.15;57.28;101195.50;146629;585;45016;-76
2023/04/07 19:30:34;;;;;;;;;12.50;10.75;;;;;12.11;57.08;101198.75;146622;564;46014;-77
2023/04/07 19:33:37;;;;;;;;;19.00;16.50;;;;;12.10;57.58;101205.66;146620;569;46032;-76
2023/04/07 19:36:30;;;;;;;;;27.25;22.75;;;;;12.07;57.28;101197.72;146622;566;46010;-73
2023/04/07 19:39:26;;;;;;;;;23.25;20.50;;;;;12.09;57.32;101184.81;146616;728;46012;-77
2023/04/07 19:42:28;;;;;;;;;23.00;19.25;;;;;12.09;56.68;101185.69;146617;571;46014;-77
2023/04/07 19:45:41;;;;;;;;;20.25;19.00;;;;;12.13;56.56;101194.53;146623;609;46012;-77
2023/04/07 19:48:39;;;;;;;;;33.75;28.50;;;;;12.01;56.02;101174.00;146620;589;47010;-75
2023/04/07 19:51:44;;;;;;;;;24.50;21.00;;;;;12.12;56.26;101187.53;146620;584;46016;-75
2023/04/07 19:54:39;;;;;;;;;40.50;29.25;;;;;12.15;56.02;101173.03;146621;597;46010;-75
2023/04/07 19:57:33;;;;;;;;;23.25;21.25;;;;;12.18;56.24;101173.19;146619;602;45017;-75
2023/04/07 20:00:31;;;;;;;;;22.50;18.50;;;;;12.20;55.59;101178.44;146623;569;45020;-76
2023/04/07 20:03:24;;;;;;;;;20.75;17.25;;;;;12.16;55.90;101177.41;146623;687;46015;-77
2023/04/07 20:06:23;;;;;;;;;16.75;16.25;;;;;12.14;56.18;101167.72;146625;570;45921;-78
2023/04/07 20:09:15;;;;;;;;;18.75;16.50;;;;;12.13;56.11;101172.03;146620;586;46012;-75
2023/04/07 20:12:07;;;;;;;;;20.25;13.25;;;;;12.14;56.01;101165.13;146618;620;46010;-76
2023/04/07 20:15:06;;;;;;;;;13.25;12.00;;;;;12.14;56.07;101176.41;146619;631;46014;-77
2023/04/07 20:18:11;;;;;;;;;12.75;10.50;;;;;11.94;55.84;101162.37;146624;700;46015;-77
2023/04/07 20:21:08;;;;;;;;;16.00;13.50;;;;;12.17;56.14;101175.69;146614;591;46012;-77
2023/04/07 20:24:06;;;;;;;;;18.00;14.00;;;;;12.19;55.76;101182.75;146623;568;45020;-79
2023/04/07 20:27:11;;;;;;;;;16.50;14.75;;;;;12.22;55.84;101184.62;146620;570;46013;-77
2023/04/07 20:30:03;;;;;;;;;16.50;14.50;;;;;12.19;55.58;101187.06;146624;584;46010;-76
2023/04/07 20:33:00;;;;;;;;;19.00;13.50;;;;;12.20;55.84;101171.53;146623;576;45033;-75
2023/04/07 20:35:56;;;;;;;;;19.00;12.75;;;;;12.24;56.29;101177.78;146623;583;45020;-75
2023/04/07 20:39:03;;;;;;;;;14.75;13.25;;;;;12.26;55.73;101178.75;146624;582;46016;-76
2023/04/07 20:41:56;;;;;;;;;13.00;13.00;;;;;12.28;55.86;101174.53;146617;592;46020;-75
2023/04/07 20:45:02;;;;;;;;;21.50;16.75;;;;;12.31;56.03;101168.63;146621;670;46010;-76
2023/04/07 20:48:15;;;;;;;;;18.75;15.50;;;;;12.34;56.08;101195.66;146625;594;46010;-76
2023/04/07 20:51:20;;;;;;;;;15.50;14.75;;;;;12.36;56.02;101172.31;146621;583;46016;-76
2023/04/07 20:54:13;;;;;;;;;17.25;14.75;;;;;12.32;56.00;101170.38;146628;710;45020;-75
2023/04/07 20:57:11;;;;;;;;;15.00;14.00;;;;;12.34;55.87;101167.06;146618;585;46012;-75
2023/04/07 21:00:20;;;;;;;;;14.50;14.00;;;;;12.36;55.91;101170.59;146622;615;46010;-75
2023/04/07 21:03:15;;;;;;;;;15.75;15.50;;;;;12.38;55.98;101168.09;146619;579;45017;-76
2023/04/07 21:06:10;;;;;;;;;18.75;13.50;;;;;12.37;55.98;101180.22;146621;582;45020;-76
2023/04/07 21:09:20;;;;;;;;;12.75;12.50;;;;;10.62;56.31;100871.50;146622;575;45016;-75
2023/04/07 21:12:35;;;;;;;;;13.50;10.25;;;;;12.36;56.71;101183.59;146616;560;45020;-75
2023/04/07 21:15:48;;;;;;;;;15.75;12.50;;;;;12.40;56.53;101187.28;146618;611;46012;-74
2023/04/07 21:18:44;;;;;;;;;14.50;13.00;;;;;12.41;56.25;101186.47;146625;663;46010;-70